createdAt,value
2023-02-04T00:02:30.269Z,19.60
2023-02-04T00:05:20.157Z,19.30
2023-02-04T00:08:11.089Z,21.03
2023-02-04T00:11:00.064Z,18.63
2023-02-04T00:13:48.773Z,17.40
2023-02-04T00:16:37.816Z,18.53
2023-02-04T00:19:26.530Z,17.87
2023-02-04T00:22:15.244Z,17.13
2023-02-04T00:25:05.785Z,18.40
2023-02-04T00:27:54.721Z,19.17
2023-02-04T00:30:43.487Z,20.57
2023-02-04T00:33:32.350Z,20.70
2023-02-04T00:36:21.015Z,24.20
2023-02-04T00:39:09.803Z,22.43
2023-02-04T00:42:00.195Z,20.07
2023-02-04T00:44:48.853Z,28.30
2023-02-04T00:47:37.707Z,23.60
2023-02-04T00:50:26.366Z,25.87
2023-02-04T00:53:15.180Z,21.40
2023-02-04T00:56:03.999Z,22.63
2023-02-04T00:58:54.105Z,24.13
2023-02-04T01:01:42.949Z,23.90
2023-02-04T01:04:31.755Z,22.67
2023-02-04T01:07:20.579Z,24.40
2023-02-04T01:10:09.479Z,23.37
2023-02-04T01:12:58.743Z,20.10
2023-02-04T01:15:50.202Z,20.70
2023-02-04T01:18:39.320Z,20.53
2023-02-04T01:21:28.407Z,20.50
2023-02-04T01:24:17.103Z,20.93
2023-02-04T01:27:24.152Z,19.47
2023-02-04T01:30:14.792Z,20.27
2023-02-04T01:33:04.979Z,19.87
2023-02-04T01:35:53.636Z,18.90
2023-02-04T01:38:42.237Z,20.70
2023-02-04T01:41:34.264Z,18.17
2023-02-04T01:44:23.028Z,22.07
2023-02-04T01:47:15.547Z,19.60
2023-02-04T01:50:06.277Z,20.80
2023-02-04T01:52:55.374Z,16.80
2023-02-04T01:55:44.091Z,17.47
2023-02-04T01:58:34.553Z,20.13
2023-02-04T02:01:37.447Z,16.03
2023-02-04T02:04:31.608Z,16.90
2023-02-04T02:07:24.634Z,17.27
2023-02-04T02:10:14.548Z,17.17
2023-02-04T02:13:05.381Z,14.40
2023-02-04T02:15:54.010Z,16.07
2023-02-04T02:18:42.878Z,18.73
2023-02-04T02:21:36.212Z,15.87
2023-02-04T02:24:30.468Z,13.50
2023-02-04T02:27:19.305Z,14.90
2023-02-04T02:30:11.311Z,12.93
2023-02-04T02:33:00.195Z,14.93
2023-02-04T02:35:49.849Z,15.57
2023-02-04T02:38:39.369Z,16.73
2023-02-04T02:41:29.507Z,12.10
2023-02-04T02:44:19.249Z,13.20
2023-02-04T02:47:07.965Z,11.50
2023-02-04T02:49:57.080Z,14.50
2023-02-04T02:52:46.055Z,12.70
2023-02-04T02:55:35.411Z,12.70
2023-02-04T02:58:32.871Z,11.30
2023-02-04T03:01:21.706Z,11.50
2023-02-04T03:04:11.876Z,9.50
2023-02-04T03:07:01.330Z,13.47
2023-02-04T03:09:52.487Z,13.37
2023-02-04T03:12:41.185Z,12.50
2023-02-04T03:15:31.665Z,13.80
2023-02-04T03:18:21.811Z,16.77
2023-02-04T03:21:10.646Z,13.97
2023-02-04T03:24:00.159Z,13.33
2023-02-04T03:26:52.475Z,12.77
2023-02-04T03:29:44.731Z,11.00
2023-02-04T03:32:34.790Z,11.57
2023-02-04T03:35:23.502Z,13.07
2023-02-04T03:38:12.298Z,13.90
2023-02-04T03:41:01.191Z,12.30
2023-02-04T03:43:49.957Z,10.67
2023-02-04T03:46:38.997Z,11.60
2023-02-04T03:49:29.519Z,12.23
2023-02-04T03:52:18.436Z,10.30
2023-02-04T03:55:07.927Z,10.50
2023-02-04T03:57:56.864Z,10.83
2023-02-04T04:00:45.581Z,9.50
2023-02-04T04:03:34.203Z,9.97
2023-02-04T04:06:24.284Z,9.27
2023-02-04T04:09:12.930Z,11.53
2023-02-04T04:12:01.781Z,10.60
2023-02-04T04:14:50.459Z,9.90
2023-02-04T04:17:39.223Z,9.70
2023-02-04T04:20:29.246Z,9.23
2023-02-04T04:23:22.321Z,11.80
2023-02-04T04:26:14.519Z,10.57
2023-02-04T04:29:03.154Z,8.97
2023-02-04T04:31:52.108Z,11.50
2023-02-04T04:34:40.780Z,11.23
2023-02-04T04:37:29.525Z,10.23
2023-02-04T04:40:20.166Z,11.67
2023-02-04T04:43:08.875Z,10.77
2023-02-04T04:45:57.879Z,9.40
2023-02-04T04:48:46.566Z,11.07
2023-02-04T04:51:35.333Z,9.30
2023-02-04T04:54:23.983Z,10.43
2023-02-04T04:57:14.018Z,12.27
2023-02-04T05:00:03.106Z,8.00
2023-02-04T05:02:51.799Z,12.70
2023-02-04T05:05:41.439Z,13.47
2023-02-04T05:08:30.268Z,14.67
2023-02-04T05:11:19.050Z,11.27
2023-02-04T05:14:09.083Z,9.93
2023-02-04T05:16:57.822Z,8.83
2023-02-04T05:19:46.608Z,9.33
2023-02-04T05:22:35.287Z,13.97
2023-02-04T05:25:24.411Z,11.03
2023-02-04T05:28:13.500Z,12.13
2023-02-04T05:31:04.439Z,12.80
2023-02-04T05:33:53.232Z,15.53
2023-02-04T05:36:41.900Z,14.37
2023-02-04T05:39:30.677Z,10.67
2023-02-04T05:42:19.384Z,9.73
2023-02-04T05:45:08.934Z,9.77
2023-02-04T05:48:02.699Z,11.50
2023-02-04T05:50:51.380Z,9.20
2023-02-04T05:53:40.171Z,12.47
2023-02-04T05:56:28.917Z,9.73
2023-02-04T05:59:17.585Z,10.63
2023-02-04T06:02:06.379Z,9.23
2023-02-04T06:04:56.461Z,9.73
2023-02-04T06:07:45.272Z,10.27
2023-02-04T06:10:34.104Z,8.83
2023-02-04T06:13:22.896Z,9.33
2023-02-04T06:16:12.256Z,10.70
2023-02-04T06:19:01.842Z,8.70
2023-02-04T06:21:51.921Z,8.17
2023-02-04T06:24:40.590Z,12.43
2023-02-04T06:27:29.474Z,13.80
2023-02-04T06:30:18.876Z,9.13
2023-02-04T06:33:07.682Z,10.03
2023-02-04T06:35:56.446Z,10.90
2023-02-04T06:38:46.554Z,9.87
2023-02-04T06:41:35.241Z,9.97
2023-02-04T06:44:23.925Z,9.67
2023-02-04T06:47:12.704Z,8.30
2023-02-04T06:50:01.743Z,9.47
2023-02-04T06:52:50.670Z,7.93
2023-02-04T06:55:41.030Z,8.20
2023-02-04T06:58:29.746Z,9.40
2023-02-04T07:01:19.029Z,9.40
2023-02-04T07:04:07.846Z,9.90
2023-02-04T07:06:56.862Z,9.67
2023-02-04T07:09:45.578Z,9.43
2023-02-04T07:12:35.571Z,11.90
2023-02-04T07:15:24.538Z,12.00
2023-02-04T07:18:13.268Z,11.07
2023-02-04T07:21:02.781Z,13.30
2023-02-04T07:23:51.452Z,12.77
2023-02-04T07:26:41.384Z,11.07
2023-02-04T07:29:31.642Z,12.70
2023-02-04T07:32:20.316Z,11.50
2023-02-04T07:35:13.095Z,8.53
2023-02-04T07:38:01.723Z,8.40
2023-02-04T07:40:50.416Z,7.97
2023-02-04T07:43:39.303Z,9.90
2023-02-04T07:46:29.716Z,6.63
2023-02-04T07:49:18.495Z,6.17
2023-02-04T07:52:10.979Z,6.43
2023-02-04T07:54:59.721Z,9.13
2023-02-04T07:57:48.598Z,7.27
2023-02-04T08:00:37.225Z,5.77
2023-02-04T08:03:27.771Z,6.40
2023-02-04T08:06:16.649Z,7.37
2023-02-04T08:09:05.755Z,5.47
2023-02-04T08:11:55.292Z,8.60
2023-02-04T08:14:43.970Z,6.23
2023-02-04T08:17:32.984Z,5.90
2023-02-04T08:20:23.383Z,5.50
2023-02-04T08:23:12.122Z,5.67
2023-02-04T08:26:01.066Z,6.60
2023-02-04T08:28:49.757Z,5.27
2023-02-04T08:31:38.873Z,6.00
2023-02-04T08:34:27.714Z,7.50
2023-02-04T08:37:17.750Z,8.63
2023-02-04T08:40:07.244Z,7.17
2023-02-04T08:42:55.909Z,6.13
2023-02-04T08:45:44.525Z,6.27
2023-02-04T08:48:33.305Z,6.00
2023-02-04T08:51:21.998Z,6.07
2023-02-04T08:54:12.366Z,7.37
2023-02-04T08:57:01.048Z,6.13
2023-02-04T08:59:49.668Z,4.00
2023-02-04T09:02:38.329Z,4.80
2023-02-04T09:05:27.046Z,4.63
2023-02-04T09:08:15.896Z,3.93
2023-02-04T09:11:06.264Z,4.37
2023-02-04T09:13:56.837Z,2.93
2023-02-04T09:16:45.661Z,4.53
2023-02-04T09:19:34.452Z,3.73
2023-02-04T09:22:23.119Z,6.07
2023-02-04T09:25:11.805Z,4.10
2023-02-04T09:28:02.056Z,4.50
2023-02-04T09:30:50.792Z,3.97
2023-02-04T09:33:39.667Z,6.10
2023-02-04T09:36:30.663Z,3.33
2023-02-04T09:39:19.347Z,4.80
2023-02-04T09:42:08.679Z,3.77
2023-02-04T09:45:00.883Z,4.80
2023-02-04T09:47:50.293Z,2.87
2023-02-04T09:50:38.997Z,5.47
2023-02-04T09:53:27.686Z,3.93
2023-02-04T09:56:17.275Z,5.07
2023-02-04T09:59:07.798Z,5.47
2023-02-04T10:02:03.203Z,4.20
2023-02-04T10:04:54.028Z,3.17
2023-02-04T10:07:42.830Z,3.97
2023-02-04T10:10:31.934Z,3.30
2023-02-04T10:13:24.190Z,4.33
2023-02-04T10:16:16.927Z,5.13
2023-02-04T10:19:13.063Z,3.17
2023-02-04T10:22:02.012Z,3.33
2023-02-04T10:24:51.037Z,4.93
2023-02-04T10:27:49.771Z,5.50
2023-02-04T10:30:43.765Z,5.13
2023-02-04T10:33:33.344Z,4.13
2023-02-04T10:36:23.401Z,5.27
2023-02-04T10:39:17.096Z,6.70
2023-02-04T10:42:07.083Z,5.57
2023-02-04T10:44:56.042Z,5.57
2023-02-04T10:47:52.718Z,6.00
2023-02-04T10:50:41.437Z,4.63
2023-02-04T10:53:48.723Z,7.23
2023-02-04T10:56:37.477Z,5.37
2023-02-04T10:59:29.187Z,4.67
2023-02-04T11:02:38.506Z,5.47
2023-02-04T11:05:32.929Z,5.30
2023-02-04T11:08:24.951Z,4.97
2023-02-04T11:11:19.753Z,4.33
2023-02-04T11:14:24.941Z,3.60
2023-02-04T11:17:21.796Z,4.80
2023-02-04T11:20:18.047Z,4.67
2023-02-04T11:23:36.993Z,7.43
2023-02-04T11:26:36.830Z,5.43
2023-02-04T11:29:34.979Z,4.83
2023-02-04T11:32:37.728Z,5.07
2023-02-04T11:35:28.848Z,4.83
2023-02-04T11:38:27.457Z,9.43
2023-02-04T11:41:22.531Z,10.03
2023-02-04T11:44:13.863Z,8.20
2023-02-04T11:47:08.176Z,4.53
2023-02-04T11:50:01.443Z,9.40
2023-02-04T11:52:50.104Z,32.83
2023-02-04T11:55:47.555Z,13.50
2023-02-04T11:58:39.978Z,9.77
2023-02-04T12:01:36.056Z,6.20
2023-02-04T12:04:26.277Z,10.07
2023-02-04T12:07:22.828Z,9.47
2023-02-04T12:10:26.675Z,9.60
2023-02-04T12:13:24.154Z,17.97
2023-02-04T12:16:12.991Z,9.17
2023-02-04T12:19:03.829Z,13.40
2023-02-04T12:21:52.805Z,18.50
2023-02-04T12:24:41.454Z,23.87
2023-02-04T12:27:30.512Z,26.40
2023-02-04T12:30:20.713Z,19.13
2023-02-04T12:33:09.572Z,37.67
2023-02-04T12:36:00.310Z,12.53
2023-02-04T12:38:48.951Z,12.07
2023-02-04T12:41:37.898Z,7.33
2023-02-04T12:44:26.686Z,19.47
2023-02-04T12:47:15.287Z,15.50
2023-02-04T12:50:04.154Z,10.27
2023-02-04T12:52:56.241Z,6.10
2023-02-04T12:55:44.859Z,8.83
2023-02-04T12:58:33.614Z,5.83
2023-02-04T13:01:22.280Z,10.77
2023-02-04T13:04:10.922Z,18.13
2023-02-04T13:06:59.683Z,8.23
2023-02-04T13:09:49.898Z,8.30
2023-02-04T13:12:38.895Z,13.73
2023-02-04T13:15:27.756Z,7.63
2023-02-04T13:18:18.538Z,14.90
2023-02-04T13:21:07.371Z,5.87
2023-02-04T13:23:59.869Z,8.40
2023-02-04T13:26:50.084Z,9.73
2023-02-04T13:29:42.539Z,13.03
2023-02-04T13:32:31.650Z,16.37
2023-02-04T13:35:20.505Z,14.87
2023-02-04T13:38:09.183Z,15.17
2023-02-04T13:40:57.906Z,15.03
2023-02-04T13:43:47.904Z,12.53
2023-02-04T13:46:36.643Z,11.20
2023-02-04T13:49:25.440Z,7.47
2023-02-04T13:52:14.398Z,18.77
2023-02-04T13:55:03.501Z,9.13
2023-02-04T13:57:52.771Z,25.43
2023-02-04T14:00:42.862Z,8.63
2023-02-04T14:03:32.027Z,6.83
2023-02-04T14:06:21.779Z,17.50
2023-02-04T14:09:11.860Z,12.97
2023-02-04T14:12:00.581Z,15.07
2023-02-04T14:14:49.303Z,9.17
2023-02-04T14:17:39.366Z,11.77
2023-02-04T14:20:28.138Z,7.27
2023-02-04T14:23:16.857Z,3.80
2023-02-04T14:26:05.733Z,8.87
2023-02-04T14:28:54.965Z,5.33
2023-02-04T14:31:43.674Z,4.47
2023-02-04T14:34:33.824Z,5.53
2023-02-04T14:37:25.657Z,5.43
2023-02-04T14:40:16.040Z,6.03
2023-02-04T14:43:04.747Z,25.77
2023-02-04T14:45:53.872Z,14.57
2023-02-04T14:48:42.497Z,8.10
2023-02-04T14:51:32.759Z,4.87
2023-02-04T14:54:21.436Z,4.93
2023-02-04T14:57:11.998Z,7.63
2023-02-04T15:00:00.728Z,4.27
2023-02-04T15:02:49.518Z,4.73
2023-02-04T15:05:38.231Z,3.53
2023-02-04T15:08:28.969Z,6.03
2023-02-04T15:11:17.761Z,5.60
2023-02-04T15:14:06.715Z,4.60
2023-02-04T15:16:55.942Z,6.97
2023-02-04T15:19:44.614Z,9.87
2023-02-04T15:22:33.480Z,4.67
2023-02-04T15:25:24.078Z,6.00
2023-02-04T15:28:12.695Z,5.47
2023-02-04T15:31:02.243Z,4.20
2023-02-04T15:33:51.025Z,4.50
2023-02-04T15:36:39.652Z,3.77
2023-02-04T15:39:28.681Z,4.00
2023-02-04T15:42:18.661Z,5.50
2023-02-04T15:45:08.622Z,7.10
2023-02-04T15:47:57.534Z,16.77
2023-02-04T15:50:46.402Z,9.60
2023-02-04T15:53:35.304Z,6.63
2023-02-04T15:56:23.988Z,9.03
2023-02-04T15:59:15.656Z,10.93
2023-02-04T16:02:04.444Z,5.87
2023-02-04T16:04:56.414Z,4.80
2023-02-04T16:07:45.070Z,7.03
2023-02-04T16:10:34.034Z,6.43
2023-02-04T16:13:23.904Z,5.23
2023-02-04T16:16:14.197Z,5.57
2023-02-04T16:19:03.146Z,5.60
2023-02-04T16:21:52.015Z,7.73
2023-02-04T16:24:40.715Z,6.23
2023-02-04T16:27:30.202Z,6.47
2023-02-04T16:30:19.127Z,8.43
2023-02-04T16:33:09.152Z,8.77
2023-02-04T16:36:00.449Z,9.47
2023-02-04T16:38:49.322Z,7.80
2023-02-04T16:41:38.149Z,7.80
2023-02-04T16:44:26.897Z,9.77
2023-02-04T16:47:15.608Z,7.57
2023-02-04T16:50:05.932Z,7.47
2023-02-04T16:52:54.533Z,9.27
2023-02-04T16:55:43.850Z,9.80
2023-02-04T16:58:32.693Z,17.47
2023-02-04T17:01:21.328Z,10.13
2023-02-04T17:04:10.015Z,9.87
2023-02-04T17:07:00.730Z,10.23
2023-02-04T17:09:49.400Z,12.53
2023-02-04T17:12:38.319Z,11.77
2023-02-04T17:15:27.086Z,10.97
2023-02-04T17:18:15.833Z,9.97
2023-02-04T17:21:04.823Z,13.93
2023-02-04T17:23:55.992Z,11.67
2023-02-04T17:26:45.026Z,11.37
2023-02-04T17:29:33.648Z,13.27
2023-02-04T17:32:22.510Z,11.67
2023-02-04T17:35:11.475Z,12.03
2023-02-04T17:38:01.408Z,13.50
2023-02-04T17:40:51.922Z,12.37
2023-02-04T17:43:40.703Z,9.77
2023-02-04T17:46:29.399Z,10.57
2023-02-04T17:49:18.185Z,11.53
2023-02-04T17:52:06.826Z,10.23
2023-02-04T17:54:55.679Z,10.70
2023-02-04T17:57:45.842Z,9.80
2023-02-04T18:00:35.065Z,12.70
2023-02-04T18:03:25.359Z,9.63
2023-02-04T18:06:20.930Z,14.47
2023-02-04T18:09:16.106Z,14.33
2023-02-04T18:12:14.075Z,10.80
2023-02-04T18:15:24.488Z,11.97
2023-02-04T18:18:21.276Z,13.90
2023-02-04T18:21:20.583Z,12.37
2023-02-04T18:24:19.395Z,11.37
2023-02-04T18:27:17.011Z,13.57
2023-02-04T18:30:20.132Z,13.23
2023-02-04T18:33:17.795Z,14.53
2023-02-04T18:36:07.242Z,16.20
2023-02-04T18:38:56.562Z,15.53
2023-02-04T18:41:48.987Z,16.77
2023-02-04T18:44:39.695Z,18.07
2023-02-04T18:47:33.646Z,15.43
2023-02-04T18:50:28.242Z,17.40
2023-02-04T18:53:23.100Z,17.53
2023-02-04T18:56:18.299Z,21.13
2023-02-04T18:59:17.043Z,19.97
2023-02-04T19:02:25.378Z,18.17
2023-02-04T19:05:27.030Z,19.27
2023-02-04T19:08:24.930Z,20.23
2023-02-04T19:11:26.463Z,15.73
2023-02-04T19:14:22.530Z,18.83
2023-02-04T19:17:25.682Z,16.93
2023-02-04T19:20:22.966Z,19.23
2023-02-04T19:23:16.713Z,14.93
2023-02-04T19:26:26.101Z,17.57
2023-02-04T19:29:38.662Z,18.13
2023-02-04T19:32:30.189Z,16.23
2023-02-04T19:35:22.301Z,21.30
2023-02-04T19:38:31.586Z,20.50
2023-02-04T19:41:29.192Z,18.67
2023-02-04T19:44:34.475Z,18.70
2023-02-04T19:47:27.890Z,19.77
2023-02-04T19:50:25.964Z,17.73
2023-02-04T19:53:19.785Z,20.30
2023-02-04T19:56:29.443Z,15.90
2023-02-04T19:59:26.388Z,17.80
2023-02-04T20:02:33.971Z,22.10
2023-02-04T20:05:26.698Z,17.83
2023-02-04T20:08:45.187Z,16.77
2023-02-04T20:11:57.395Z,15.13
2023-02-04T20:14:52.562Z,18.53
2023-02-04T20:17:43.190Z,16.40
2023-02-04T20:20:36.049Z,16.97
2023-02-04T20:23:30.162Z,16.37
2023-02-04T20:26:19.151Z,20.50
2023-02-04T20:29:20.147Z,18.37
2023-02-04T20:32:18.820Z,18.40
2023-02-04T20:36:02.816Z,19.03
2023-02-04T20:38:58.549Z,21.47
2023-02-04T20:41:48.489Z,17.37
2023-02-04T20:44:42.028Z,18.50
2023-02-04T20:47:35.863Z,20.47
2023-02-04T20:50:38.332Z,19.00
2023-02-04T20:53:28.516Z,23.00
2023-02-04T20:56:27.136Z,19.83
2023-02-04T20:59:30.180Z,17.50
2023-02-04T21:02:20.932Z,20.10
2023-02-04T21:05:24.507Z,19.07
2023-02-04T21:08:27.766Z,20.00
2023-02-04T21:11:16.653Z,15.47
2023-02-04T21:14:07.439Z,18.23
2023-02-04T21:16:57.130Z,19.97
2023-02-04T21:19:45.999Z,19.63
2023-02-04T21:22:34.824Z,17.53
2023-02-04T21:25:23.635Z,18.10
2023-02-04T21:28:12.543Z,19.57
2023-02-04T21:31:03.428Z,18.77
2023-02-04T21:33:53.669Z,22.37
2023-02-04T21:36:42.795Z,21.90
2023-02-04T21:39:31.652Z,17.97
2023-02-04T21:42:20.561Z,19.33
2023-02-04T21:45:10.218Z,24.53
2023-02-04T21:48:00.389Z,21.27
2023-02-04T21:50:49.170Z,23.23
2023-02-04T21:53:39.119Z,19.67
2023-02-04T21:56:27.752Z,21.73
2023-02-04T21:59:18.796Z,20.50
2023-02-04T22:02:07.825Z,21.17
2023-02-04T22:04:57.855Z,20.20
2023-02-04T22:07:46.628Z,18.93
2023-02-04T22:10:35.372Z,22.27
2023-02-04T22:13:24.090Z,21.10
2023-02-04T22:16:12.899Z,19.60
2023-02-04T22:19:01.553Z,19.73
2023-02-04T22:21:51.599Z,21.23
2023-02-04T22:24:40.244Z,20.53
2023-02-04T22:27:29.352Z,18.93
2023-02-04T22:30:19.330Z,15.37
2023-02-04T22:33:08.634Z,15.83
2023-02-04T22:35:57.258Z,21.80
2023-02-04T22:38:47.403Z,17.87
2023-02-04T22:41:36.113Z,21.93
2023-02-04T22:44:25.004Z,23.33
2023-02-04T22:47:14.015Z,19.90
2023-02-04T22:50:03.239Z,18.63
2023-02-04T22:52:51.931Z,20.20
2023-02-04T22:55:41.897Z,16.70
2023-02-04T22:58:31.679Z,19.33
2023-02-04T23:01:20.641Z,19.03
2023-02-04T23:04:09.307Z,20.63
2023-02-04T23:06:58.339Z,17.10
2023-02-04T23:09:46.967Z,18.30
2023-02-04T23:12:37.071Z,16.97
2023-02-04T23:15:25.821Z,17.50
2023-02-04T23:18:14.615Z,18.63
2023-02-04T23:21:05.458Z,15.53
2023-02-04T23:23:54.475Z,15.83
2023-02-04T23:26:43.419Z,15.63
2023-02-04T23:29:35.360Z,15.87
2023-02-04T23:32:27.115Z,14.87
2023-02-04T23:35:15.987Z,15.43
2023-02-04T23:38:04.671Z,16.47
2023-02-04T23:40:53.455Z,21.10
2023-02-04T23:43:42.183Z,18.23
2023-02-04T23:46:32.627Z,16.80
2023-02-04T23:49:21.578Z,15.87
2023-02-04T23:52:10.238Z,16.13
2023-02-04T23:54:58.942Z,13.70
2023-02-04T23:57:49.675Z,14.80
